createdAt,value
2022-08-05T00:01:51.381Z,21.10
2022-08-05T00:07:26.746Z,21.00
2022-08-05T00:12:14.621Z,20.90
2022-08-05T00:17:26.893Z,21.00
2022-08-05T00:22:33.512Z,20.90
2022-08-05T00:27:42.920Z,20.90
2022-08-05T00:32:50.302Z,20.90
2022-08-05T00:37:59.315Z,21.00
2022-08-05T00:43:08.952Z,20.80
2022-08-05T00:48:31.529Z,20.90
2022-08-05T00:54:00.739Z,20.80
2022-08-05T00:58:42.491Z,20.90
2022-08-05T01:03:50.229Z,20.90
2022-08-05T01:08:57.685Z,20.80
2022-08-05T01:14:43.204Z,20.80
2022-08-05T01:20:17.029Z,20.90
2022-08-05T01:26:06.083Z,20.70
2022-08-05T01:31:45.215Z,20.60
2022-08-05T01:37:24.611Z,20.60
2022-08-05T01:42:31.213Z,20.50
2022-08-05T01:47:43.494Z,20.60
2022-08-05T01:52:54.418Z,20.50
2022-08-05T01:58:29.559Z,20.40
2022-08-05T02:03:39.663Z,20.50
2022-08-05T02:08:57.920Z,20.50
2022-08-05T02:14:17.141Z,20.50
2022-08-05T02:19:47.123Z,20.60
2022-08-05T02:24:51.381Z,20.40
2022-08-05T02:30:01.745Z,20.40
2022-08-05T02:35:13.666Z,20.40
2022-08-05T02:40:26.009Z,20.60
2022-08-05T02:45:51.937Z,20.50
2022-08-05T02:50:47.435Z,20.50
2022-08-05T02:56:00.042Z,20.20
2022-08-05T03:01:10.170Z,20.20
2022-08-05T03:06:55.330Z,20.20
2022-08-05T03:11:54.886Z,20.30
2022-08-05T03:16:40.005Z,20.20
2022-08-05T03:21:48.668Z,20.30
2022-08-05T03:26:57.655Z,20.30
2022-08-05T03:32:10.115Z,20.30
2022-08-05T03:37:20.184Z,20.40
2022-08-05T03:42:29.181Z,20.20
2022-08-05T03:47:41.204Z,20.30
2022-08-05T03:55:51.361Z,20.20
2022-08-05T03:58:11.199Z,20.10
2022-08-05T04:03:26.661Z,20.00
2022-08-05T04:08:36.281Z,20.30
2022-08-05T04:13:50.461Z,20.30
2022-08-05T04:18:57.779Z,20.30
2022-08-05T04:24:09.118Z,20.20
2022-08-05T04:29:15.067Z,20.10
2022-08-05T04:34:32.585Z,20.00
2022-08-05T04:39:35.399Z,20.30
2022-08-05T04:44:43.682Z,20.30
2022-08-05T04:50:02.783Z,20.30
2022-08-05T04:55:05.329Z,20.20
2022-08-05T05:00:14.654Z,20.10
2022-08-05T05:05:28.597Z,20.40
2022-08-05T05:10:34.728Z,20.50
2022-08-05T05:15:56.241Z,20.60
2022-08-05T05:20:52.629Z,20.80
2022-08-05T05:26:00.828Z,21.00
2022-08-05T05:31:08.955Z,21.00
2022-08-05T05:36:18.699Z,21.10
2022-08-05T05:41:40.668Z,21.10
2022-08-05T05:46:35.854Z,21.20
2022-08-05T05:51:50.702Z,21.40
2022-08-05T05:56:54.473Z,21.30
2022-08-05T06:02:01.280Z,21.30
2022-08-05T06:07:08.095Z,21.30
2022-08-05T06:12:17.346Z,21.40
2022-08-05T06:17:31.062Z,21.50
2022-08-05T06:22:37.448Z,21.50
2022-08-05T06:28:11.070Z,21.70
2022-08-05T06:32:54.715Z,21.70
2022-08-05T06:38:08.288Z,21.80
2022-08-05T06:43:51.503Z,21.90
2022-08-05T06:48:53.419Z,22.00
2022-08-05T06:53:39.354Z,22.10
2022-08-05T06:58:46.810Z,22.10
2022-08-05T07:03:55.190Z,22.40
2022-08-05T07:09:04.823Z,23.10
2022-08-05T07:14:32.163Z,23.30
2022-08-05T07:24:53.545Z,23.80
2022-08-05T07:30:28.013Z,24.10
2022-08-05T07:36:04.335Z,24.30
2022-08-05T07:40:26.866Z,24.70
2022-08-05T07:45:57.623Z,25.20
2022-08-05T07:50:50.667Z,25.70
2022-08-05T07:56:05.409Z,26.10
2022-08-05T08:01:12.178Z,26.30
2022-08-05T08:06:16.830Z,26.60
2022-08-05T08:11:27.453Z,27.00
2022-08-05T08:16:35.347Z,26.90
2022-08-05T08:21:43.321Z,27.40
2022-08-05T08:26:56.238Z,27.60
2022-08-05T08:32:03.521Z,27.90
2022-08-05T08:37:14.809Z,28.20
2022-08-05T08:42:34.467Z,28.50
2022-08-05T08:53:21.602Z,28.50
2022-08-05T08:58:37.491Z,28.90
2022-08-05T09:03:46.614Z,29.10
2022-08-05T09:09:02.589Z,29.30
2022-08-05T09:14:57.763Z,29.50
2022-08-05T09:19:27.701Z,29.70
2022-08-05T09:24:32.780Z,30.10
2022-08-05T09:29:48.614Z,30.20
2022-08-05T09:35:02.579Z,30.50
2022-08-05T09:40:16.745Z,30.80
2022-08-05T09:46:06.829Z,30.80
2022-08-05T09:50:45.219Z,30.80
2022-08-05T09:56:04.453Z,30.70
2022-08-05T10:01:32.034Z,30.60
2022-08-05T10:06:25.425Z,30.70
2022-08-05T10:11:35.121Z,31.10
2022-08-05T10:16:53.151Z,31.20
2022-08-05T10:21:57.892Z,31.30
2022-08-05T10:27:07.578Z,31.20
2022-08-05T10:33:01.409Z,31.50
2022-08-05T10:37:26.738Z,32.00
2022-08-05T10:42:43.700Z,32.10
2022-08-05T10:48:31.532Z,31.90
2022-08-05T10:53:12.650Z,32.10
2022-08-05T10:58:35.721Z,32.40
2022-08-05T11:03:31.177Z,32.30
2022-08-05T11:08:40.297Z,31.80
2022-08-05T11:13:57.973Z,32.30
2022-08-05T11:20:10.965Z,32.40
2022-08-05T11:24:50.690Z,32.00
2022-08-05T11:30:03.383Z,32.30
2022-08-05T11:35:11.298Z,31.70
2022-08-05T11:40:19.844Z,32.30
2022-08-05T11:46:15.671Z,32.10
2022-08-05T11:50:45.183Z,31.90
2022-08-05T11:56:06.373Z,31.90
2022-08-05T12:01:24.143Z,32.00
2022-08-05T12:06:34.619Z,32.10
2022-08-05T12:11:49.015Z,32.50
2022-08-05T12:16:59.015Z,32.50
2022-08-05T12:22:19.914Z,32.80
2022-08-05T12:27:32.617Z,32.60
2022-08-05T12:32:54.485Z,32.30
2022-08-05T12:38:03.088Z,32.70
2022-08-05T12:43:20.649Z,32.80
2022-08-05T12:48:32.618Z,32.80
2022-08-05T12:53:37.172Z,32.30
2022-08-05T12:58:51.928Z,32.90
2022-08-05T13:03:54.768Z,32.80
2022-08-05T13:09:28.314Z,32.70
2022-08-05T13:14:36.232Z,32.60
2022-08-05T13:19:51.935Z,32.50
2022-08-05T13:24:57.783Z,33.00
2022-08-05T13:30:34.451Z,33.00
2022-08-05T13:35:15.012Z,32.90
2022-08-05T13:40:47.892Z,32.80
2022-08-05T13:45:38.524Z,31.90
2022-08-05T13:50:43.523Z,31.80
2022-08-05T13:55:57.637Z,30.80
2022-08-05T14:01:01.294Z,30.60
2022-08-05T14:06:25.852Z,30.60
2022-08-05T14:11:21.087Z,31.40
2022-08-05T14:16:27.401Z,31.70
2022-08-05T14:22:09.800Z,31.60
2022-08-05T14:26:56.560Z,31.70
2022-08-05T14:32:03.917Z,31.70
2022-08-05T14:37:01.656Z,31.50
2022-08-05T14:42:21.178Z,30.80
2022-08-05T14:48:04.204Z,30.30
2022-08-05T14:52:51.674Z,30.00
2022-08-05T14:57:54.679Z,29.60
2022-08-05T15:02:45.034Z,29.30
2022-08-05T15:08:11.543Z,29.10
2022-08-05T15:13:03.574Z,29.10
2022-08-05T15:18:14.799Z,28.80
2022-08-05T15:23:22.721Z,28.50
2022-08-05T15:28:29.946Z,28.40
2022-08-05T15:34:04.146Z,28.40
2022-08-05T15:38:46.971Z,28.10
2022-08-05T15:43:57.931Z,27.90
2022-08-05T15:49:10.654Z,27.90
2022-08-05T15:54:17.019Z,27.70
2022-08-05T15:59:23.830Z,27.60
2022-08-05T16:04:30.663Z,27.60
2022-08-05T16:09:37.370Z,27.40
2022-08-05T16:14:47.324Z,27.40
2022-08-05T16:20:04.737Z,27.40
2022-08-05T16:25:08.099Z,27.50
2022-08-05T16:30:25.608Z,27.40
2022-08-05T16:35:27.928Z,27.40
2022-08-05T16:40:31.852Z,27.50
2022-08-05T16:46:07.623Z,27.30
2022-08-05T16:50:50.550Z,27.20
2022-08-05T16:55:57.485Z,27.20
2022-08-05T17:01:06.754Z,27.20
2022-08-05T17:06:16.893Z,27.00
2022-08-05T17:11:27.560Z,27.10
2022-08-05T17:16:37.182Z,26.90
2022-08-05T17:21:44.389Z,26.90
2022-08-05T17:26:52.965Z,26.80
2022-08-05T17:32:01.632Z,26.80
2022-08-05T17:37:32.150Z,26.80
2022-08-05T17:42:22.006Z,26.50
2022-08-05T17:47:27.352Z,26.50
2022-08-05T17:52:38.045Z,26.50
2022-08-05T17:57:48.637Z,26.70
2022-08-05T18:02:58.140Z,26.50
2022-08-05T18:08:06.000Z,26.40
2022-08-05T18:13:14.406Z,26.30
2022-08-05T18:18:21.250Z,26.20
2022-08-05T18:23:40.608Z,26.00
2022-08-05T18:28:42.346Z,26.00
2022-08-05T18:33:55.520Z,26.00
2022-08-05T18:39:06.512Z,26.00
2022-08-05T18:44:33.331Z,26.00
2022-08-05T18:49:57.151Z,25.80
2022-08-05T18:54:52.958Z,25.90
2022-08-05T19:00:07.689Z,25.60
2022-08-05T19:06:05.969Z,25.40
2022-08-05T19:10:27.839Z,25.50
2022-08-05T19:16:00.090Z,25.40
2022-08-05T19:20:51.867Z,25.20
2022-08-05T19:26:01.982Z,25.20
2022-08-05T19:31:08.541Z,25.00
2022-08-05T19:36:18.021Z,25.00
2022-08-05T19:41:58.475Z,25.00
2022-08-05T19:46:43.823Z,24.90
2022-08-05T19:52:09.326Z,25.00
2022-08-05T19:57:06.591Z,25.00
2022-08-05T20:02:12.213Z,24.80
2022-08-05T20:07:47.244Z,24.70
2022-08-05T20:12:30.415Z,24.80
2022-08-05T20:17:37.125Z,24.90
2022-08-05T20:22:44.526Z,24.80
2022-08-05T20:27:53.340Z,24.80
2022-08-05T20:33:00.621Z,24.50
2022-08-05T20:38:08.216Z,24.40
2022-08-05T20:43:16.475Z,24.30
2022-08-05T20:48:25.023Z,24.20
2022-08-05T20:53:36.854Z,24.20
2022-08-05T20:58:43.420Z,24.20
2022-08-05T21:03:51.389Z,24.10
2022-08-05T21:08:58.160Z,24.00
2022-08-05T21:14:08.012Z,24.10
2022-08-05T21:19:15.523Z,24.10
2022-08-05T21:24:23.070Z,24.20
2022-08-05T21:29:32.623Z,24.00
2022-08-05T21:34:41.851Z,23.90
2022-08-05T21:39:48.849Z,23.90
2022-08-05T21:44:57.266Z,23.80
2022-08-05T21:50:04.731Z,23.80
2022-08-05T21:55:13.772Z,23.70
2022-08-05T22:00:20.563Z,23.60
2022-08-05T22:05:30.329Z,23.60
2022-08-05T22:10:39.751Z,23.80
2022-08-05T22:16:02.601Z,23.70
2022-08-05T22:20:57.641Z,24.00
2022-08-05T22:26:24.018Z,24.10
2022-08-05T22:31:44.241Z,24.30
2022-08-05T22:36:40.939Z,24.00
2022-08-05T22:42:10.471Z,24.00
2022-08-05T22:46:58.141Z,23.90
2022-08-05T22:52:15.428Z,24.00
2022-08-05T22:57:16.710Z,23.80
2022-08-05T23:02:29.796Z,23.90
2022-08-05T23:07:48.257Z,23.90
2022-08-05T23:12:43.875Z,23.80
2022-08-05T23:18:02.434Z,23.70
2022-08-05T23:23:00.160Z,23.70
2022-08-05T23:28:09.343Z,23.70
2022-08-05T23:33:22.436Z,23.50
2022-08-05T23:38:26.870Z,23.40
2022-08-05T23:43:49.777Z,23.50
2022-08-05T23:48:44.081Z,23.30
2022-08-05T23:53:52.465Z,23.30
2022-08-05T23:59:01.295Z,23.30
